This is the latest recevied weather packets stored in our database for station/object OK2ZAW-23. If no packets are shown the sender has not sent any weather packets the latest 10 day(s).
| Time | Temp. | Humidity | Pressure | Rain* | Wind** | Luminosity | Snow |
|---|---|---|---|---|---|---|---|
| 1777746927 | 20° C | 22% | 1016.9 hPa | - | - | 335 W/m² | - |
| 1777746613 | 20.56° C | 22% | 1016.8 hPa | - | - | 336 W/m² | - |
| 1777746299 | 21.67° C | 21% | 1016.8 hPa | - | - | 336 W/m² | - |
| 1777745671 | 23.89° C | 20% | 1016.7 hPa | - | - | 336 W/m² | - |
| 1777744411 | 28.89° C | 18% | 1016.5 hPa | - | - | 336 W/m² | - |
| 1777743465 | 31.11° C | 17% | 1016.6 hPa | - | - | 336 W/m² | - |
| 1777743149 | 32.22° C | 16% | 1016.5 hPa | - | - | 336 W/m² | - |
| 1777742835 | 32.78° C | 16% | 1016.5 hPa | - | - | 336 W/m² | - |
| 1777742203 | 33.89° C | 15% | 1016.5 hPa | - | - | 336 W/m² | - |
| 1777741572 | 34.44° C | 15% | 1016.6 hPa | - | - | 336 W/m² | - |
| 1777740940 | 35.56° C | 15% | 1016.7 hPa | - | - | 336 W/m² | - |
| 1777740308 | 36.11° C | 14% | 1016.9 hPa | - | - | 336 W/m² | - |
| 1777739992 | 37.22° C | 14% | 1016.9 hPa | - | - | 336 W/m² | - |
| 1777739676 | 37.78° C | 14% | 1016.9 hPa | - | - | 336 W/m² | - |
| 1777739360 | 37.22° C | 15% | 1016.9 hPa | - | - | 336 W/m² | - |
| 1777739044 | 36.67° C | 15% | 1017 hPa | - | - | 336 W/m² | - |
| 1777738412 | 36.67° C | 14% | 1017.2 hPa | - | - | 336 W/m² | - |
| 1777737147 | 36.67° C | 15% | 1017.5 hPa | - | - | 336 W/m² | - |
| 1777736832 | 36.11° C | 14% | 1017.6 hPa | - | - | 336 W/m² | - |
| 1777736199 | 36.67° C | 14% | 1017.7 hPa | - | - | 337 W/m² | - |
| 1777735568 | 37.22° C | 16% | 1017.8 hPa | - | - | 337 W/m² | - |
| 1777734619 | 35.56° C | 17% | 1018 hPa | - | - | 336 W/m² | - |
| 1777734303 | 35° C | 17% | 1018 hPa | - | - | 336 W/m² | - |
| 1777733040 | 33.33° C | 18% | 1018.3 hPa | - | - | 336 W/m² | - |
| 1777732408 | 32.22° C | 19% | 1018.4 hPa | - | - | 336 W/m² | - |
* Rain since midnight (hover to see other rain measurements)
** Current wind speed in m/s (hover to see current wind gust speed)